sensor_id;sensor_type;location;lat;lon;timestamp;P1;durP1;ratioP1;P2;durP2;ratioP2
53642;SDS011;39546;45.534;12.048;2023-02-28T00:00:11;7.93;;;4.12;;
53642;SDS011;39546;45.534;12.048;2023-02-28T00:06:15;5.62;;;3.83;;
53642;SDS011;39546;45.534;12.048;2023-02-28T00:12:17;5.18;;;2.97;;
53642;SDS011;39546;45.534;12.048;2023-02-28T00:18:19;6.97;;;3.22;;
53642;SDS011;39546;45.534;12.048;2023-02-28T00:24:21;6.00;;;3.78;;
53642;SDS011;39546;45.534;12.048;2023-02-28T00:30:24;6.43;;;3.87;;
53642;SDS011;39546;45.534;12.048;2023-02-28T00:36:26;5.45;;;3.25;;
53642;SDS011;39546;45.534;12.048;2023-02-28T00:42:28;8.55;;;4.72;;
53642;SDS011;39546;45.534;12.048;2023-02-28T00:48:31;6.78;;;2.87;;
53642;SDS011;39546;45.534;12.048;2023-02-28T00:54:33;13.32;;;3.67;;
53642;SDS011;39546;45.534;12.048;2023-02-28T01:00:35;7.40;;;3.72;;
53642;SDS011;39546;45.534;12.048;2023-02-28T01:06:38;5.10;;;2.92;;
53642;SDS011;39546;45.534;12.048;2023-02-28T01:12:40;4.85;;;3.33;;
53642;SDS011;39546;45.534;12.048;2023-02-28T01:18:43;3.42;;;2.58;;
53642;SDS011;39546;45.534;12.048;2023-02-28T01:24:45;6.53;;;3.65;;
53642;SDS011;39546;45.534;12.048;2023-02-28T01:30:48;4.53;;;1.62;;
53642;SDS011;39546;45.534;12.048;2023-02-28T01:36:51;3.65;;;2.17;;
53642;SDS011;39546;45.534;12.048;2023-02-28T01:42:53;6.15;;;3.72;;
53642;SDS011;39546;45.534;12.048;2023-02-28T01:49:05;6.35;;;3.85;;
53642;SDS011;39546;45.534;12.048;2023-02-28T01:55:10;5.40;;;3.00;;
53642;SDS011;39546;45.534;12.048;2023-02-28T02:01:13;5.47;;;2.55;;
53642;SDS011;39546;45.534;12.048;2023-02-28T02:07:22;6.53;;;3.30;;
53642;SDS011;39546;45.534;12.048;2023-02-28T02:20:08;5.40;;;3.12;;
53642;SDS011;39546;45.534;12.048;2023-02-28T02:45:56;5.03;;;2.75;;
53642;SDS011;39546;45.534;12.048;2023-02-28T02:52:06;6.93;;;4.47;;
53642;SDS011;39546;45.534;12.048;2023-02-28T02:58:13;5.97;;;3.30;;
53642;SDS011;39546;45.534;12.048;2023-02-28T03:04:19;3.95;;;2.42;;
53642;SDS011;39546;45.534;12.048;2023-02-28T03:10:27;6.10;;;3.53;;
53642;SDS011;39546;45.534;12.048;2023-02-28T03:16:49;6.00;;;2.90;;
53642;SDS011;39546;45.534;12.048;2023-02-28T03:29:33;6.00;;;3.45;;
53642;SDS011;39546;45.534;12.048;2023-02-28T03:35:42;4.43;;;2.67;;
53642;SDS011;39546;45.534;12.048;2023-02-28T03:42:07;4.93;;;3.37;;
53642;SDS011;39546;45.534;12.048;2023-02-28T03:48:24;5.40;;;3.37;;
53642;SDS011;39546;45.534;12.048;2023-02-28T03:54:34;4.65;;;2.28;;
53642;SDS011;39546;45.534;12.048;2023-02-28T04:00:43;5.40;;;3.78;;
53642;SDS011;39546;45.534;12.048;2023-02-28T04:07:00;5.80;;;3.08;;
53642;SDS011;39546;45.534;12.048;2023-02-28T04:13:07;5.80;;;3.90;;
53642;SDS011;39546;45.534;12.048;2023-02-28T04:19:09;5.75;;;3.45;;
53642;SDS011;39546;45.534;12.048;2023-02-28T04:25:12;6.32;;;3.72;;
53642;SDS011;39546;45.534;12.048;2023-02-28T04:31:15;5.82;;;3.37;;
53642;SDS011;39546;45.534;12.048;2023-02-28T04:37:17;4.15;;;2.10;;
53642;SDS011;39546;45.534;12.048;2023-02-28T04:43:19;5.50;;;3.28;;
53642;SDS011;39546;45.534;12.048;2023-02-28T04:49:21;6.40;;;3.85;;
53642;SDS011;39546;45.534;12.048;2023-02-28T04:55:23;5.30;;;3.15;;
53642;SDS011;39546;45.534;12.048;2023-02-28T05:01:26;7.30;;;4.10;;
53642;SDS011;39546;45.534;12.048;2023-02-28T05:07:30;5.78;;;3.37;;
53642;SDS011;39546;45.534;12.048;2023-02-28T05:13:32;7.70;;;5.25;;
53642;SDS011;39546;45.534;12.048;2023-02-28T05:19:34;9.02;;;5.35;;
53642;SDS011;39546;45.534;12.048;2023-02-28T05:25:36;6.78;;;3.85;;
53642;SDS011;39546;45.534;12.048;2023-02-28T05:31:39;8.73;;;5.90;;
53642;SDS011;39546;45.534;12.048;2023-02-28T05:37:41;4.68;;;2.92;;
53642;SDS011;39546;45.534;12.048;2023-02-28T05:43:43;6.18;;;4.03;;
53642;SDS011;39546;45.534;12.048;2023-02-28T05:49:45;8.55;;;3.75;;
53642;SDS011;39546;45.534;12.048;2023-02-28T05:55:47;5.97;;;4.37;;
53642;SDS011;39546;45.534;12.048;2023-02-28T06:01:49;4.85;;;3.12;;
53642;SDS011;39546;45.534;12.048;2023-02-28T06:07:51;7.95;;;5.12;;
53642;SDS011;39546;45.534;12.048;2023-02-28T06:13:54;6.68;;;4.53;;
53642;SDS011;39546;45.534;12.048;2023-02-28T06:19:57;8.68;;;5.95;;
53642;SDS011;39546;45.534;12.048;2023-02-28T06:25:59;5.70;;;4.03;;
53642;SDS011;39546;45.534;12.048;2023-02-28T06:32:02;6.97;;;3.72;;
53642;SDS011;39546;45.534;12.048;2023-02-28T06:38:04;10.23;;;6.70;;
53642;SDS011;39546;45.534;12.048;2023-02-28T06:44:10;12.45;;;7.22;;
53642;SDS011;39546;45.534;12.048;2023-02-28T06:50:14;9.93;;;6.10;;
53642;SDS011;39546;45.534;12.048;2023-02-28T06:56:18;10.70;;;6.90;;
53642;SDS011;39546;45.534;12.048;2023-02-28T07:02:24;8.20;;;5.10;;
53642;SDS011;39546;45.534;12.048;2023-02-28T07:08:26;12.37;;;7.40;;
53642;SDS011;39546;45.534;12.048;2023-02-28T07:14:28;8.88;;;5.82;;
53642;SDS011;39546;45.534;12.048;2023-02-28T07:20:30;10.98;;;6.30;;
53642;SDS011;39546;45.534;12.048;2023-02-28T07:26:32;10.82;;;5.78;;
53642;SDS011;39546;45.534;12.048;2023-02-28T07:32:37;11.02;;;6.32;;
53642;SDS011;39546;45.534;12.048;2023-02-28T07:38:39;15.82;;;6.95;;
53642;SDS011;39546;45.534;12.048;2023-02-28T07:44:42;9.88;;;5.55;;
53642;SDS011;39546;45.534;12.048;2023-02-28T07:50:44;6.50;;;3.72;;
53642;SDS011;39546;45.534;12.048;2023-02-28T07:56:49;11.12;;;6.75;;
53642;SDS011;39546;45.534;12.048;2023-02-28T08:02:51;8.80;;;5.10;;
53642;SDS011;39546;45.534;12.048;2023-02-28T08:08:53;6.68;;;4.68;;
53642;SDS011;39546;45.534;12.048;2023-02-28T08:14:57;8.68;;;5.37;;
53642;SDS011;39546;45.534;12.048;2023-02-28T08:25:22;10.77;;;6.30;;
53642;SDS011;39546;45.534;12.048;2023-02-28T08:31:24;12.95;;;6.68;;
53642;SDS011;39546;45.534;12.048;2023-02-28T08:37:26;13.27;;;7.15;;
53642;SDS011;39546;45.534;12.048;2023-02-28T08:43:28;8.57;;;5.65;;
53642;SDS011;39546;45.534;12.048;2023-02-28T08:49:30;7.95;;;5.20;;
53642;SDS011;39546;45.534;12.048;2023-02-28T08:55:33;18.77;;;9.45;;
53642;SDS011;39546;45.534;12.048;2023-02-28T09:01:35;9.40;;;5.40;;
53642;SDS011;39546;45.534;12.048;2023-02-28T09:07:37;6.90;;;5.22;;
53642;SDS011;39546;45.534;12.048;2023-02-28T09:13:40;7.05;;;4.87;;
53642;SDS011;39546;45.534;12.048;2023-02-28T09:19:42;9.65;;;6.10;;
53642;SDS011;39546;45.534;12.048;2023-02-28T09:25:50;11.02;;;6.60;;
53642;SDS011;39546;45.534;12.048;2023-02-28T09:31:56;9.70;;;5.32;;
53642;SDS011;39546;45.534;12.048;2023-02-28T09:38:01;10.05;;;5.82;;
53642;SDS011;39546;45.534;12.048;2023-02-28T09:44:04;8.40;;;4.75;;
53642;SDS011;39546;45.534;12.048;2023-02-28T09:56:21;7.25;;;4.78;;
53642;SDS011;39546;45.534;12.048;2023-02-28T10:02:46;10.70;;;5.57;;
53642;SDS011;39546;45.534;12.048;2023-02-28T10:09:11;12.00;;;5.97;;
53642;SDS011;39546;45.534;12.048;2023-02-28T10:15:19;9.80;;;6.22;;
53642;SDS011;39546;45.534;12.048;2023-02-28T10:27:36;8.40;;;5.18;;
53642;SDS011;39546;45.534;12.048;2023-02-28T10:33:38;24.67;;;7.50;;
53642;SDS011;39546;45.534;12.048;2023-02-28T10:39:44;8.95;;;5.65;;
53642;SDS011;39546;45.534;12.048;2023-02-28T10:52:10;9.00;;;5.10;;
53642;SDS011;39546;45.534;12.048;2023-02-28T10:58:23;10.27;;;4.90;;
53642;SDS011;39546;45.534;12.048;2023-02-28T11:10:33;13.02;;;6.20;;
53642;SDS011;39546;45.534;12.048;2023-02-28T11:16:36;10.82;;;5.53;;
53642;SDS011;39546;45.534;12.048;2023-02-28T11:22:39;10.77;;;6.53;;
53642;SDS011;39546;45.534;12.048;2023-02-28T11:28:46;8.20;;;4.75;;
53642;SDS011;39546;45.534;12.048;2023-02-28T11:35:00;11.07;;;7.07;;
53642;SDS011;39546;45.534;12.048;2023-02-28T11:47:29;11.35;;;6.53;;
53642;SDS011;39546;45.534;12.048;2023-02-28T12:00:18;8.20;;;6.03;;
53642;SDS011;39546;45.534;12.048;2023-02-28T12:13:06;10.18;;;6.57;;
53642;SDS011;39546;45.534;12.048;2023-02-28T12:37:44;13.13;;;6.40;;
53642;SDS011;39546;45.534;12.048;2023-02-28T12:44:01;8.90;;;4.97;;
53642;SDS011;39546;45.534;12.048;2023-02-28T12:50:15;8.45;;;6.18;;
53642;SDS011;39546;45.534;12.048;2023-02-28T12:56:20;9.13;;;5.25;;
53642;SDS011;39546;45.534;12.048;2023-02-28T13:02:33;10.18;;;6.45;;
53642;SDS011;39546;45.534;12.048;2023-02-28T13:09:10;10.48;;;5.10;;
53642;SDS011;39546;45.534;12.048;2023-02-28T13:15:21;8.13;;;5.18;;
53642;SDS011;39546;45.534;12.048;2023-02-28T13:27:46;8.45;;;5.80;;
53642;SDS011;39546;45.534;12.048;2023-02-28T13:46:14;9.75;;;6.55;;
53642;SDS011;39546;45.534;12.048;2023-02-28T13:52:17;11.52;;;5.47;;
53642;SDS011;39546;45.534;12.048;2023-02-28T14:04:49;10.40;;;7.45;;
53642;SDS011;39546;45.534;12.048;2023-02-28T14:11:06;9.05;;;4.95;;
53642;SDS011;39546;45.534;12.048;2023-02-28T14:17:24;10.13;;;4.93;;
53642;SDS011;39546;45.534;12.048;2023-02-28T14:36:06;15.48;;;7.18;;
53642;SDS011;39546;45.534;12.048;2023-02-28T14:42:32;10.07;;;7.25;;
53642;SDS011;39546;45.534;12.048;2023-02-28T14:48:36;7.30;;;5.20;;
53642;SDS011;39546;45.534;12.048;2023-02-28T14:54:39;8.27;;;5.55;;
53642;SDS011;39546;45.534;12.048;2023-02-28T15:00:49;11.48;;;7.05;;
53642;SDS011;39546;45.534;12.048;2023-02-28T15:07:12;11.27;;;6.00;;
53642;SDS011;39546;45.534;12.048;2023-02-28T15:13:16;9.82;;;5.75;;
53642;SDS011;39546;45.534;12.048;2023-02-28T15:19:29;10.63;;;5.25;;
53642;SDS011;39546;45.534;12.048;2023-02-28T15:25:35;12.07;;;6.40;;
53642;SDS011;39546;45.534;12.048;2023-02-28T15:31:44;11.45;;;6.47;;
53642;SDS011;39546;45.534;12.048;2023-02-28T15:44:27;7.90;;;5.18;;
53642;SDS011;39546;45.534;12.048;2023-02-28T15:50:34;10.65;;;5.78;;
53642;SDS011;39546;45.534;12.048;2023-02-28T15:56:43;7.57;;;4.82;;
53642;SDS011;39546;45.534;12.048;2023-02-28T16:02:48;9.23;;;5.85;;
53642;SDS011;39546;45.534;12.048;2023-02-28T16:08:50;8.75;;;5.50;;
53642;SDS011;39546;45.534;12.048;2023-02-28T16:14:53;11.30;;;8.10;;
53642;SDS011;39546;45.534;12.048;2023-02-28T16:20:57;10.65;;;6.37;;
53642;SDS011;39546;45.534;12.048;2023-02-28T16:27:00;16.25;;;6.15;;
53642;SDS011;39546;45.534;12.048;2023-02-28T16:33:02;9.20;;;5.62;;
53642;SDS011;39546;45.534;12.048;2023-02-28T16:39:05;9.82;;;5.50;;
53642;SDS011;39546;45.534;12.048;2023-02-28T16:45:11;10.25;;;5.65;;
53642;SDS011;39546;45.534;12.048;2023-02-28T16:51:23;11.77;;;5.93;;
53642;SDS011;39546;45.534;12.048;2023-02-28T16:57:25;10.52;;;6.22;;
53642;SDS011;39546;45.534;12.048;2023-02-28T17:03:28;13.60;;;7.55;;
53642;SDS011;39546;45.534;12.048;2023-02-28T17:09:30;13.48;;;7.90;;
53642;SDS011;39546;45.534;12.048;2023-02-28T17:15:33;10.20;;;6.03;;
53642;SDS011;39546;45.534;12.048;2023-02-28T17:21:35;9.32;;;5.20;;
53642;SDS011;39546;45.534;12.048;2023-02-28T17:27:38;7.90;;;4.03;;
53642;SDS011;39546;45.534;12.048;2023-02-28T17:33:40;7.40;;;5.07;;
53642;SDS011;39546;45.534;12.048;2023-02-28T17:39:42;5.97;;;3.65;;
53642;SDS011;39546;45.534;12.048;2023-02-28T17:45:45;7.97;;;4.97;;
53642;SDS011;39546;45.534;12.048;2023-02-28T17:51:47;6.35;;;4.12;;
53642;SDS011;39546;45.534;12.048;2023-02-28T17:57:50;8.07;;;4.35;;
53642;SDS011;39546;45.534;12.048;2023-02-28T18:03:52;6.78;;;4.10;;
53642;SDS011;39546;45.534;12.048;2023-02-28T18:09:55;9.93;;;5.47;;
53642;SDS011;39546;45.534;12.048;2023-02-28T18:15:57;11.77;;;6.12;;
53642;SDS011;39546;45.534;12.048;2023-02-28T18:22:00;10.90;;;6.45;;
53642;SDS011;39546;45.534;12.048;2023-02-28T18:28:02;11.93;;;7.00;;
53642;SDS011;39546;45.534;12.048;2023-02-28T18:34:06;11.55;;;7.15;;
53642;SDS011;39546;45.534;12.048;2023-02-28T18:40:08;15.55;;;11.02;;
53642;SDS011;39546;45.534;12.048;2023-02-28T18:46:12;14.98;;;10.40;;
53642;SDS011;39546;45.534;12.048;2023-02-28T18:52:16;12.10;;;7.85;;
53642;SDS011;39546;45.534;12.048;2023-02-28T18:58:18;12.95;;;8.27;;
53642;SDS011;39546;45.534;12.048;2023-02-28T19:04:20;13.80;;;7.90;;
53642;SDS011;39546;45.534;12.048;2023-02-28T19:10:23;12.90;;;6.97;;
53642;SDS011;39546;45.534;12.048;2023-02-28T19:16:25;10.40;;;7.72;;
53642;SDS011;39546;45.534;12.048;2023-02-28T19:22:28;11.12;;;7.18;;
53642;SDS011;39546;45.534;12.048;2023-02-28T19:28:30;11.05;;;8.15;;
53642;SDS011;39546;45.534;12.048;2023-02-28T19:34:32;14.38;;;7.25;;
53642;SDS011;39546;45.534;12.048;2023-02-28T19:40:35;12.25;;;8.02;;
53642;SDS011;39546;45.534;12.048;2023-02-28T19:46:37;12.63;;;8.50;;
53642;SDS011;39546;45.534;12.048;2023-02-28T19:52:39;17.40;;;11.40;;
53642;SDS011;39546;45.534;12.048;2023-02-28T19:58:43;14.43;;;8.73;;
53642;SDS011;39546;45.534;12.048;2023-02-28T20:04:46;10.98;;;7.53;;
53642;SDS011;39546;45.534;12.048;2023-02-28T20:10:50;11.07;;;7.20;;
53642;SDS011;39546;45.534;12.048;2023-02-28T20:16:53;9.23;;;5.70;;
53642;SDS011;39546;45.534;12.048;2023-02-28T20:22:55;11.00;;;7.10;;
53642;SDS011;39546;45.534;12.048;2023-02-28T20:28:57;10.07;;;6.78;;
53642;SDS011;39546;45.534;12.048;2023-02-28T20:35:00;11.75;;;7.05;;
53642;SDS011;39546;45.534;12.048;2023-02-28T20:41:02;11.45;;;7.97;;
53642;SDS011;39546;45.534;12.048;2023-02-28T20:47:05;10.93;;;7.25;;
53642;SDS011;39546;45.534;12.048;2023-02-28T20:53:07;11.95;;;8.43;;
53642;SDS011;39546;45.534;12.048;2023-02-28T20:59:10;11.82;;;7.15;;
53642;SDS011;39546;45.534;12.048;2023-02-28T21:05:12;10.70;;;6.75;;
53642;SDS011;39546;45.534;12.048;2023-02-28T21:11:16;11.40;;;6.45;;
53642;SDS011;39546;45.534;12.048;2023-02-28T21:17:21;11.25;;;8.35;;
53642;SDS011;39546;45.534;12.048;2023-02-28T21:23:23;16.27;;;9.60;;
53642;SDS011;39546;45.534;12.048;2023-02-28T21:29:25;12.40;;;8.63;;
53642;SDS011;39546;45.534;12.048;2023-02-28T21:35:27;11.35;;;8.60;;
53642;SDS011;39546;45.534;12.048;2023-02-28T21:41:29;10.23;;;7.12;;
53642;SDS011;39546;45.534;12.048;2023-02-28T21:47:32;13.07;;;7.22;;
53642;SDS011;39546;45.534;12.048;2023-02-28T21:53:35;11.05;;;6.72;;
53642;SDS011;39546;45.534;12.048;2023-02-28T21:59:38;16.02;;;10.20;;
53642;SDS011;39546;45.534;12.048;2023-02-28T22:05:40;10.27;;;7.35;;
53642;SDS011;39546;45.534;12.048;2023-02-28T22:11:43;11.95;;;7.10;;
53642;SDS011;39546;45.534;12.048;2023-02-28T22:17:45;14.02;;;10.38;;
53642;SDS011;39546;45.534;12.048;2023-02-28T22:23:48;9.73;;;6.47;;
53642;SDS011;39546;45.534;12.048;2023-02-28T22:29:53;14.45;;;10.20;;
53642;SDS011;39546;45.534;12.048;2023-02-28T22:35:56;16.87;;;11.00;;
53642;SDS011;39546;45.534;12.048;2023-02-28T22:42:06;17.83;;;9.90;;
53642;SDS011;39546;45.534;12.048;2023-02-28T22:48:08;16.27;;;9.75;;
53642;SDS011;39546;45.534;12.048;2023-02-28T22:54:11;11.98;;;7.72;;
53642;SDS011;39546;45.534;12.048;2023-02-28T23:00:13;11.80;;;8.27;;
53642;SDS011;39546;45.534;12.048;2023-02-28T23:06:20;6.78;;;4.95;;
53642;SDS011;39546;45.534;12.048;2023-02-28T23:12:44;8.38;;;5.47;;
53642;SDS011;39546;45.534;12.048;2023-02-28T23:18:53;9.18;;;6.35;;
53642;SDS011;39546;45.534;12.048;2023-02-28T23:24:56;10.25;;;6.32;;
53642;SDS011;39546;45.534;12.048;2023-02-28T23:31:01;13.85;;;8.10;;
53642;SDS011;39546;45.534;12.048;2023-02-28T23:37:06;9.73;;;5.97;;
53642;SDS011;39546;45.534;12.048;2023-02-28T23:43:09;11.32;;;6.80;;
53642;SDS011;39546;45.534;12.048;2023-02-28T23:49:13;10.13;;;5.85;;
53642;SDS011;39546;45.534;12.048;2023-02-28T23:55:16;11.48;;;7.15;;
